Time;durP1;ratioP1;P1;durP2;ratioP2;P2;SDS_P1;SDS_P2;PMS_P1;PMS_P2;Temp;Humidity;BMP_temperature;BMP_pressure;BME280_temperature;BME280_humidity;BME280_pressure;Samples;Min_cycle;Max_cycle;Signal;HPM_P1;HPM_P2
2022/11/26 00:00:55;;;;;;;32.93;21.23;;;7.60;99.90;;;;;;5025640;28;20298;-58
2022/11/26 00:03:21;;;;;;;37.70;21.50;;;7.60;99.90;;;;;;5022437;28;20297;-58
2022/11/26 00:05:50;;;;;;;33.67;21.73;;;7.60;99.90;;;;;;5023645;28;20198;-58
2022/11/26 00:08:29;;;;;;;35.67;21.50;;;7.60;99.90;;;;;;5021370;28;20203;-58
2022/11/26 00:10:55;;;;;;;32.03;20.67;;;7.60;99.90;;;;;;5026067;28;20630;-58
2022/11/26 00:13:24;;;;;;;30.20;20.20;;;7.60;99.90;;;;;;5024972;28;20208;-57
2022/11/26 00:15:51;;;;;;;37.20;21.23;;;7.60;99.90;;;;;;5027364;28;20203;-61
2022/11/26 00:18:17;;;;;;;33.53;19.97;;;7.60;99.90;;;;;;5021945;28;20744;-59
2022/11/26 00:20:44;;;;;;;29.80;19.90;;;7.60;99.90;;;;;;5021411;28;20211;-59
2022/11/26 00:23:25;;;;;;;33.40;20.20;;;7.60;99.90;;;;;;5027462;28;20211;-58
2022/11/26 00:25:58;;;;;;;35.57;21.90;;;7.70;99.90;;;;;;5024243;28;20222;-60
2022/11/26 00:28:30;;;;;;;33.33;20.07;;;7.60;99.90;;;;;;5016778;28;20211;-57
2022/11/26 00:30:59;;;;;;;27.13;18.03;;;7.60;99.90;;;;;;5027329;28;20288;-75
2022/11/26 00:33:27;;;;;;;37.03;20.90;;;7.60;99.90;;;;;;5021361;28;20210;-74
2022/11/26 00:36:00;;;;;;;29.90;20.87;;;7.70;99.90;;;;;;5022763;28;20697;-61
2022/11/26 00:38:26;;;;;;;34.43;20.37;;;7.90;99.90;;;;;;5023398;28;20223;-55
2022/11/26 00:40:51;;;;;;;33.37;19.97;;;7.90;99.90;;;;;;5025100;28;20208;-58
2022/11/26 00:43:17;;;;;;;33.33;20.37;;;7.80;99.90;;;;;;5017036;28;20226;-57
2022/11/26 00:45:44;;;;;;;27.23;18.30;;;7.80;99.90;;;;;;5025872;28;20214;-58
2022/11/26 00:48:10;;;;;;;40.20;20.13;;;7.70;99.90;;;;;;5030272;28;20565;-55
2022/11/26 00:50:40;;;;;;;29.20;18.37;;;7.70;99.90;;;;;;5035273;28;20202;-57
2022/11/26 00:53:07;;;;;;;27.17;17.93;;;7.70;99.90;;;;;;5033790;28;20210;-57
2022/11/26 00:55:36;;;;;;;34.17;19.93;;;7.70;99.90;;;;;;5035485;28;20218;-58
2022/11/26 00:58:02;;;;;;;30.30;18.13;;;7.70;99.90;;;;;;5035037;28;20233;-57
2022/11/26 01:00:30;;;;;;;34.73;17.93;;;7.70;99.90;;;;;;5035067;28;20198;-57
2022/11/26 01:02:56;;;;;;;28.07;17.50;;;7.70;99.90;;;;;;5036384;28;20237;-57
2022/11/26 01:05:24;;;;;;;26.93;19.73;;;7.70;99.90;;;;;;5026513;28;20949;-58
2022/11/26 01:07:51;;;;;;;34.00;19.33;;;7.60;99.90;;;;;;5032787;28;20198;-57
2022/11/26 01:10:18;;;;;;;40.00;20.97;;;7.60;99.90;;;;;;5037511;28;20190;-57
2022/11/26 01:12:44;;;;;;;32.33;18.47;;;7.60;99.90;;;;;;5038933;28;20198;-55
2022/11/26 01:15:11;;;;;;;35.93;20.70;;;7.60;99.90;;;;;;5038950;28;20210;-56
2022/11/26 01:17:37;;;;;;;36.83;18.63;;;7.60;99.90;;;;;;5038832;28;20777;-56
2022/11/26 01:20:09;;;;;;;32.93;19.80;;;7.70;99.90;;;;;;5038685;28;20206;-56
2022/11/26 01:22:34;;;;;;;28.93;18.43;;;7.70;99.90;;;;;;5038367;28;20206;-56
2022/11/26 01:25:00;;;;;;;32.33;18.87;;;7.60;99.90;;;;;;5036749;28;20734;-58
2022/11/26 01:27:25;;;;;;;33.60;18.63;;;7.60;99.90;;;;;;5038169;28;20289;-56
2022/11/26 01:29:51;;;;;;;34.97;18.07;;;7.60;99.90;;;;;;5038520;28;20207;-56
2022/11/26 01:32:16;;;;;;;36.97;20.03;;;7.60;99.90;;;;;;5038452;28;20202;-57
2022/11/26 01:34:42;;;;;;;31.57;18.30;;;7.60;99.90;;;;;;5038432;28;20195;-57
2022/11/26 01:37:12;;;;;;;36.53;19.10;;;7.60;99.90;;;;;;5038400;28;20221;-57
2022/11/26 01:39:38;;;;;;;36.67;21.03;;;7.60;99.90;;;;;;5038460;28;20515;-57
2022/11/26 01:42:36;;;;;;;30.77;18.93;;;7.60;99.90;;;;;;5038367;28;20201;-56
2022/11/26 01:45:02;;;;;;;39.80;20.73;;;7.70;99.90;;;;;;5037989;28;20203;-56
2022/11/26 01:47:28;;;;;;;43.53;20.63;;;7.70;99.90;;;;;;5038011;28;20261;-55
2022/11/26 01:50:28;;;;;;;41.27;21.10;;;7.70;99.90;;;;;;5026680;28;20748;-56
2022/11/26 01:53:03;;;;;;;35.40;19.80;;;7.80;99.90;;;;;;5034627;28;20221;-56
2022/11/26 01:55:36;;;;;;;37.63;20.60;;;7.80;99.90;;;;;;5026732;28;20219;-56
2022/11/26 01:58:04;;;;;;;37.97;20.03;;;7.80;99.90;;;;;;5034061;28;20226;-55
2022/11/26 02:00:29;;;;;;;36.70;20.07;;;7.80;99.90;;;;;;5034644;28;20282;-56
2022/11/26 02:02:55;;;;;;;36.60;19.80;;;7.80;99.90;;;;;;5029203;28;20285;-56
2022/11/26 02:05:28;;;;;;;36.07;19.33;;;7.80;99.90;;;;;;5037139;28;20222;-55
2022/11/26 02:07:55;;;;;;;34.63;19.47;;;7.70;99.90;;;;;;5037762;28;20203;-56
2022/11/26 02:10:21;;;;;;;31.37;19.77;;;7.70;99.90;;;;;;5035847;28;20563;-55
2022/11/26 02:12:47;;;;;;;39.07;19.00;;;7.70;99.90;;;;;;5037912;28;20206;-56
2022/11/26 02:15:12;;;;;;;30.80;19.40;;;7.70;99.90;;;;;;5036898;28;20210;-56
2022/11/26 02:17:50;;;;;;;33.47;19.17;;;7.70;99.90;;;;;;5036573;28;20206;-57
2022/11/26 02:20:28;;;;;;;38.40;18.60;;;7.70;99.90;;;;;;5037024;28;20208;-56
2022/11/26 02:23:12;;;;;;;31.63;18.83;;;7.70;99.90;;;;;;5032045;28;20202;-56
2022/11/26 02:26:07;;;;;;;37.17;21.03;;;7.70;99.90;;;;;;5033423;28;20230;-57
2022/11/26 02:29:05;;;;;;;39.80;21.07;;;7.70;99.90;;;;;;5037216;28;20646;-57
2022/11/26 02:31:58;;;;;;;39.50;19.83;;;7.70;99.90;;;;;;5027120;28;20212;-57
2022/11/26 02:34:46;;;;;;;38.60;20.00;;;7.60;99.90;;;;;;5035257;28;20309;-57
2022/11/26 02:37:23;;;;;;;43.43;22.67;;;7.70;99.90;;;;;;5028589;28;20218;-57
2022/11/26 02:39:50;;;;;;;35.17;20.90;;;7.60;99.90;;;;;;5037126;28;20273;-56
2022/11/26 02:42:42;;;;;;;44.23;22.20;;;7.70;99.90;;;;;;5036860;28;20222;-56
2022/11/26 02:45:13;;;;;;;51.93;25.20;;;7.70;99.90;;;;;;5024835;28;20858;-58
2022/11/26 02:47:47;;;;;;;48.93;23.50;;;7.80;99.90;;;;;;5037400;28;20609;-57
2022/11/26 02:50:28;;;;;;;43.30;23.60;;;7.80;99.90;;;;;;5036488;28;20226;-56
2022/11/26 02:52:57;;;;;;;48.87;24.07;;;7.80;99.90;;;;;;5036815;28;20202;-56
2022/11/26 02:55:28;;;;;;;44.43;24.87;;;7.80;99.90;;;;;;5036978;28;20356;-56
2022/11/26 02:57:55;;;;;;;44.87;24.00;;;7.80;99.90;;;;;;5035280;28;20937;-57
2022/11/26 03:00:21;;;;;;;40.13;22.77;;;7.80;99.90;;;;;;5027447;28;20240;-56
2022/11/26 03:03:21;;;;;;;53.90;25.83;;;7.80;99.90;;;;;;5034988;28;20204;-56
2022/11/26 03:05:49;;;;;;;51.80;24.37;;;7.80;99.90;;;;;;5036929;28;20217;-57
2022/11/26 03:08:15;;;;;;;46.87;25.83;;;7.80;99.90;;;;;;5035484;28;20211;-56
2022/11/26 03:10:41;;;;;;;51.00;26.53;;;7.80;99.90;;;;;;5027216;28;20356;-55
2022/11/26 03:13:06;;;;;;;43.93;25.00;;;7.80;99.90;;;;;;5035979;28;20681;-56
2022/11/26 03:15:32;;;;;;;44.33;25.90;;;7.80;99.90;;;;;;5036710;28;20673;-56
2022/11/26 03:17:57;;;;;;;44.60;24.70;;;7.80;99.90;;;;;;5036672;28;20715;-56
2022/11/26 03:20:23;;;;;;;55.57;25.47;;;7.80;99.90;;;;;;5035580;28;20194;-56
2022/11/26 03:22:48;;;;;;;45.83;27.07;;;7.80;99.90;;;;;;5035545;28;20191;-56
2022/11/26 03:25:14;;;;;;;45.30;25.33;;;7.80;99.90;;;;;;5038334;28;20206;-55
2022/11/26 03:27:39;;;;;;;55.40;27.63;;;7.80;99.90;;;;;;5035350;28;20193;-56
2022/11/26 03:30:06;;;;;;;51.60;26.07;;;7.80;99.90;;;;;;5035259;28;20206;-56
2022/11/26 03:32:31;;;;;;;55.47;29.80;;;7.80;99.90;;;;;;5028833;28;21054;-56
2022/11/26 03:34:57;;;;;;;56.20;27.80;;;7.80;99.90;;;;;;5037213;28;20202;-56
2022/11/26 03:37:22;;;;;;;64.70;29.03;;;7.80;99.90;;;;;;5035437;28;20210;-55
2022/11/26 03:39:48;;;;;;;66.23;28.20;;;7.90;99.90;;;;;;5033033;28;20681;-57
2022/11/26 03:42:13;;;;;;;58.50;28.67;;;7.90;99.90;;;;;;5035703;28;20268;-56
2022/11/26 03:44:39;;;;;;;65.13;31.17;;;7.90;99.90;;;;;;5036243;28;20233;-56
2022/11/26 03:47:04;;;;;;;59.50;28.93;;;7.90;99.90;;;;;;5034160;28;20285;-56
2022/11/26 03:49:29;;;;;;;59.47;29.07;;;7.90;99.90;;;;;;5023192;28;20673;-56
2022/11/26 03:51:55;;;;;;;62.03;31.47;;;7.90;99.90;;;;;;5027968;28;20182;-56
2022/11/26 03:54:21;;;;;;;61.20;30.37;;;7.90;99.90;;;;;;5034051;28;20337;-56
2022/11/26 03:56:46;;;;;;;61.67;30.20;;;7.90;99.90;;;;;;5032542;28;20286;-56
2022/11/26 03:59:11;;;;;;;54.80;28.33;;;7.90;99.90;;;;;;5035890;28;20696;-56
2022/11/26 04:01:38;;;;;;;57.77;29.40;;;7.90;99.90;;;;;;5035956;28;20299;-56
2022/11/26 04:04:04;;;;;;;70.73;29.83;;;7.90;99.90;;;;;;5035865;28;20697;-59
2022/11/26 04:06:29;;;;;;;60.33;29.30;;;7.90;99.90;;;;;;5035731;28;20298;-56
2022/11/26 04:08:55;;;;;;;55.23;26.63;;;8.00;99.90;;;;;;5034387;28;20198;-56
2022/11/26 04:11:20;;;;;;;59.57;27.23;;;8.00;99.90;;;;;;5035673;28;20285;-55
2022/11/26 04:13:46;;;;;;;58.03;27.03;;;8.00;99.90;;;;;;5035833;28;20230;-55
2022/11/26 04:16:11;;;;;;;50.73;27.13;;;8.00;99.90;;;;;;5035839;28;20684;-56
2022/11/26 04:18:37;;;;;;;46.00;26.40;;;8.00;99.90;;;;;;5033714;28;20206;-55
2022/11/26 04:21:06;;;;;;;48.60;27.47;;;8.00;99.90;;;;;;5035647;28;20206;-55
2022/11/26 04:23:31;;;;;;;48.67;26.97;;;8.10;99.90;;;;;;5035298;28;20301;-55
2022/11/26 04:25:57;;;;;;;49.37;26.57;;;8.10;99.90;;;;;;5037868;28;20241;-55
2022/11/26 04:28:22;;;;;;;49.67;27.37;;;8.10;99.90;;;;;;5033754;28;20728;-57
2022/11/26 04:30:48;;;;;;;52.97;27.77;;;8.10;99.90;;;;;;5035233;28;20625;-56
2022/11/26 04:33:13;;;;;;;52.57;26.17;;;8.10;99.90;;;;;;5033123;28;20210;-58
2022/11/26 04:35:39;;;;;;;44.17;25.40;;;8.10;99.90;;;;;;5035524;28;20336;-57
2022/11/26 04:38:04;;;;;;;50.63;25.93;;;8.10;99.90;;;;;;5033523;28;20499;-57
2022/11/26 04:40:30;;;;;;;50.57;25.93;;;8.10;99.90;;;;;;5033325;28;20280;-57
2022/11/26 04:42:55;;;;;;;45.83;25.73;;;8.10;99.90;;;;;;5034093;28;20230;-56
2022/11/26 04:45:21;;;;;;;59.53;25.17;;;8.10;99.90;;;;;;5034366;28;20252;-56
2022/11/26 04:47:46;;;;;;;47.67;25.50;;;8.10;99.90;;;;;;5039217;28;20199;-56
2022/11/26 04:50:12;;;;;;;51.80;27.07;;;8.10;99.90;;;;;;5038978;28;20257;-57
2022/11/26 04:52:37;;;;;;;44.10;24.70;;;8.10;99.90;;;;;;5039259;28;20313;-57
2022/11/26 04:55:03;;;;;;;43.83;24.83;;;8.10;99.90;;;;;;5038931;28;20253;-56
2022/11/26 04:57:28;;;;;;;43.13;23.97;;;8.10;99.90;;;;;;5037342;28;20536;-56
2022/11/26 04:59:54;;;;;;;40.47;23.30;;;8.10;99.90;;;;;;5036516;28;20469;-57
2022/11/26 05:02:19;;;;;;;44.70;23.10;;;8.10;99.90;;;;;;5038959;28;20329;-56
2022/11/26 05:04:45;;;;;;;40.33;23.13;;;8.10;99.90;;;;;;5037777;28;20197;-57
2022/11/26 05:07:10;;;;;;;42.87;23.97;;;8.10;99.90;;;;;;5038249;28;20238;-57
2022/11/26 05:09:36;;;;;;;42.03;23.37;;;8.10;99.90;;;;;;5038808;28;20248;-56
2022/11/26 05:12:01;;;;;;;43.70;23.17;;;8.10;99.90;;;;;;5036561;28;20742;-57
2022/11/26 05:14:27;;;;;;;33.77;21.83;;;8.10;99.90;;;;;;5038487;28;20286;-57
2022/11/26 05:16:52;;;;;;;38.63;23.57;;;8.10;99.90;;;;;;5037305;28;20195;-57
2022/11/26 05:19:17;;;;;;;38.17;20.87;;;8.20;99.90;;;;;;5028407;28;20802;-58
2022/11/26 05:21:43;;;;;;;38.33;22.40;;;8.10;99.90;;;;;;5029145;28;20202;-57
2022/11/26 05:24:09;;;;;;;34.43;21.57;;;8.10;99.90;;;;;;5028895;28;20202;-57
2022/11/26 05:26:34;;;;;;;38.20;20.47;;;8.10;99.90;;;;;;5026641;28;20211;-56
2022/11/26 05:29:00;;;;;;;27.20;19.47;;;8.10;99.90;;;;;;5028207;28;20213;-56
2022/11/26 05:31:25;;;;;;;36.87;20.80;;;8.10;99.90;;;;;;5027727;28;20211;-56
2022/11/26 05:33:51;;;;;;;34.03;20.47;;;8.10;99.90;;;;;;5027829;28;20192;-56
2022/11/26 05:36:16;;;;;;;34.53;18.53;;;8.10;99.90;;;;;;5027781;28;20261;-56
2022/11/26 05:38:41;;;;;;;29.70;18.90;;;8.10;99.90;;;;;;5028053;28;20215;-55
2022/11/26 05:41:07;;;;;;;33.77;17.37;;;8.10;99.90;;;;;;5026791;28;20203;-56
2022/11/26 05:43:32;;;;;;;36.77;20.37;;;8.10;99.90;;;;;;5031095;28;20202;-56
2022/11/26 05:46:07;;;;;;;27.60;17.07;;;8.10;99.90;;;;;;5025617;28;20253;-56
2022/11/26 05:48:33;;;;;;;29.77;18.83;;;8.10;99.90;;;;;;5028716;28;20236;-55
2022/11/26 05:51:00;;;;;;;26.77;17.27;;;8.10;99.90;;;;;;5026239;28;20759;-55
2022/11/26 05:53:27;;;;;;;25.83;17.33;;;8.10;99.90;;;;;;5028886;28;20257;-55
2022/11/26 05:55:52;;;;;;;26.97;16.70;;;8.10;99.90;;;;;;5025554;28;20286;-56
2022/11/26 05:58:18;;;;;;;27.53;16.90;;;8.10;99.90;;;;;;5027345;28;20229;-56
2022/11/26 06:00:43;;;;;;;25.57;17.33;;;8.10;99.90;;;;;;5027811;28;20203;-56
2022/11/26 06:03:09;;;;;;;34.73;19.30;;;8.10;99.90;;;;;;5025730;28;20202;-56
2022/11/26 06:05:34;;;;;;;26.23;15.93;;;8.10;99.90;;;;;;5028247;28;20387;-57
2022/11/26 06:08:00;;;;;;;27.57;16.77;;;8.10;99.90;;;;;;5028233;28;20262;-57
2022/11/26 06:10:25;;;;;;;31.93;17.43;;;8.10;99.90;;;;;;5028501;28;20740;-57
2022/11/26 06:12:51;;;;;;;30.10;15.93;;;8.10;99.90;;;;;;5026483;28;20400;-56
2022/11/26 06:15:16;;;;;;;30.33;15.37;;;8.10;99.90;;;;;;5028270;28;20211;-56
2022/11/26 06:17:42;;;;;;;27.10;16.20;;;8.10;99.90;;;;;;5025605;28;21070;-56
2022/11/26 06:20:08;;;;;;;58.30;35.90;;;8.10;99.90;;;;;;5027081;28;20203;-56
2022/11/26 06:22:37;;;;;;;26.43;15.47;;;8.10;99.90;;;;;;5027100;28;20580;-57
2022/11/26 06:25:04;;;;;;;26.80;15.77;;;8.10;99.90;;;;;;5027304;28;20290;-56
2022/11/26 06:27:32;;;;;;;29.03;16.13;;;8.10;99.90;;;;;;5027066;28;20209;-56
2022/11/26 06:29:58;;;;;;;27.63;16.93;;;8.00;99.90;;;;;;5026685;28;20206;-56
2022/11/26 06:32:23;;;;;;;31.30;16.33;;;8.00;99.90;;;;;;5024135;28;20207;-56
2022/11/26 06:34:48;;;;;;;40.93;18.83;;;8.00;99.90;;;;;;5027979;28;20636;-56
2022/11/26 06:37:14;;;;;;;32.10;16.87;;;8.00;99.90;;;;;;5027553;28;20579;-55
2022/11/26 06:39:39;;;;;;;26.50;15.47;;;8.00;99.90;;;;;;5027642;28;20273;-57
2022/11/26 06:42:05;;;;;;;36.03;17.40;;;8.00;99.90;;;;;;5025746;28;20209;-57
2022/11/26 06:44:30;;;;;;;25.30;16.57;;;8.00;99.90;;;;;;5026812;28;20202;-56
2022/11/26 06:46:56;;;;;;;30.73;16.90;;;8.10;99.90;;;;;;5026752;28;20234;-56
2022/11/26 06:49:21;;;;;;;30.80;16.57;;;8.00;99.90;;;;;;5026744;28;20207;-56
2022/11/26 06:51:47;;;;;;;24.20;14.57;;;8.10;99.90;;;;;;5027009;28;20257;-56
2022/11/26 06:54:12;;;;;;;33.80;16.13;;;8.10;99.90;;;;;;5026426;28;20651;-55
2022/11/26 06:56:38;;;;;;;37.93;16.27;;;8.10;99.90;;;;;;5025170;28;20713;-55
2022/11/26 06:59:04;;;;;;;32.60;17.70;;;8.10;99.90;;;;;;5027175;28;20223;-55
2022/11/26 07:01:29;;;;;;;21.50;15.40;;;8.10;99.90;;;;;;5027205;28;20206;-55
2022/11/26 07:03:55;;;;;;;34.63;15.13;;;8.10;99.90;;;;;;5027026;28;20229;-55
2022/11/26 07:06:22;;;;;;;25.10;15.10;;;8.10;99.90;;;;;;5026457;28;20206;-55
2022/11/26 07:08:48;;;;;;;33.03;16.73;;;8.10;99.90;;;;;;5027184;28;20256;-56
2022/11/26 07:11:14;;;;;;;28.10;14.67;;;8.10;99.90;;;;;;5026622;28;20215;-56
2022/11/26 07:13:40;;;;;;;32.43;15.67;;;8.10;99.90;;;;;;5035507;28;20284;-56
2022/11/26 07:16:06;;;;;;;32.90;16.07;;;8.10;99.90;;;;;;5036613;28;20321;-56
2022/11/26 07:18:31;;;;;;;35.00;15.53;;;8.10;99.90;;;;;;5036373;28;20229;-56
2022/11/26 07:21:03;;;;;;;26.47;14.20;;;8.10;99.90;;;;;;5040833;28;20206;-57
2022/11/26 07:23:29;;;;;;;30.33;14.10;;;8.10;99.90;;;;;;5031785;28;20298;-57
2022/11/26 07:25:58;;;;;;;32.03;14.00;;;8.10;99.90;;;;;;5036246;28;20321;-57
2022/11/26 07:28:24;;;;;;;26.40;15.10;;;8.10;99.90;;;;;;5036675;28;20230;-56
2022/11/26 07:30:49;;;;;;;24.17;14.00;;;8.10;99.90;;;;;;5035903;28;20222;-56
2022/11/26 07:33:15;;;;;;;34.77;13.40;;;8.10;99.90;;;;;;5034219;28;20569;-56
2022/11/26 07:35:40;;;;;;;25.77;13.97;;;8.10;99.90;;;;;;5036189;28;20260;-56
2022/11/26 07:38:06;;;;;;;36.77;15.53;;;8.10;99.90;;;;;;5024851;28;20222;-56
2022/11/26 07:40:31;;;;;;;32.37;14.23;;;8.20;99.90;;;;;;5026088;28;20250;-56
2022/11/26 07:42:58;;;;;;;31.37;14.20;;;8.20;99.90;;;;;;5025868;28;20305;-56
2022/11/26 07:45:24;;;;;;;24.20;13.20;;;8.20;99.90;;;;;;5025754;28;20250;-57
2022/11/26 07:47:50;;;;;;;29.30;12.80;;;8.20;99.90;;;;;;5026388;28;20281;-56
2022/11/26 07:50:15;;;;;;;25.77;12.47;;;8.20;99.90;;;;;;5025001;28;20220;-56
2022/11/26 07:52:41;;;;;;;32.87;13.37;;;8.20;99.90;;;;;;5026216;28;20199;-56
2022/11/26 07:55:07;;;;;;;24.93;13.70;;;8.20;99.90;;;;;;5034980;28;20223;-56
2022/11/26 07:57:32;;;;;;;21.20;11.47;;;8.20;99.90;;;;;;5026201;28;20655;-56
2022/11/26 07:59:58;;;;;;;21.70;12.60;;;8.20;99.90;;;;;;5024000;28;20199;-55
2022/11/26 08:02:23;;;;;;;33.20;13.10;;;8.20;99.90;;;;;;5026055;28;20210;-56
2022/11/26 08:04:49;;;;;;;19.10;12.73;;;8.20;99.90;;;;;;5024350;28;21022;-56
2022/11/26 08:07:14;;;;;;;24.87;12.40;;;8.30;99.90;;;;;;5025431;28;20411;-55
2022/11/26 08:09:40;;;;;;;21.37;11.77;;;8.30;99.90;;;;;;5025902;28;20207;-55
2022/11/26 08:12:05;;;;;;;23.17;12.10;;;8.30;99.90;;;;;;5023504;28;20207;-57
2022/11/26 08:14:31;;;;;;;22.80;11.43;;;8.30;99.90;;;;;;5026193;28;20207;-56
2022/11/26 08:16:56;;;;;;;20.83;11.43;;;8.30;99.90;;;;;;5029471;28;20209;-56
2022/11/26 08:19:22;;;;;;;33.13;13.67;;;8.30;99.90;;;;;;5026951;28;20222;-56
2022/11/26 08:21:47;;;;;;;36.63;12.60;;;8.30;99.90;;;;;;5030742;28;20605;-56
2022/11/26 08:24:16;;;;;;;30.20;12.00;;;8.40;99.90;;;;;;5029883;28;20206;-55
2022/11/26 08:26:42;;;;;;;29.53;11.10;;;8.40;99.90;;;;;;5029342;28;20272;-56
2022/11/26 08:29:08;;;;;;;25.97;11.07;;;8.40;99.90;;;;;;5030563;28;20230;-56
2022/11/26 08:31:34;;;;;;;21.67;10.50;;;8.40;99.90;;;;;;5027837;28;20632;-56
2022/11/26 08:34:01;;;;;;;15.60;9.63;;;8.40;99.90;;;;;;5029336;28;20211;-56
2022/11/26 08:36:28;;;;;;;18.63;9.97;;;8.40;99.90;;;;;;5027728;28;20207;-56
2022/11/26 08:38:54;;;;;;;19.10;10.43;;;8.40;99.90;;;;;;5029883;28;20234;-56
2022/11/26 08:41:19;;;;;;;23.53;10.23;;;8.40;99.90;;;;;;5029763;28;20204;-56
2022/11/26 08:43:45;;;;;;;19.40;10.17;;;8.40;99.90;;;;;;5029893;28;20267;-57
2022/11/26 08:46:11;;;;;;;19.73;10.10;;;8.40;99.90;;;;;;5030867;28;20258;-57
2022/11/26 08:48:37;;;;;;;19.57;10.10;;;8.40;99.90;;;;;;5027370;28;20230;-57
2022/11/26 08:51:08;;;;;;;25.33;10.33;;;8.40;99.90;;;;;;5028661;28;20413;-57
2022/11/26 08:53:35;;;;;;;17.93;9.77;;;8.50;99.90;;;;;;5031480;28;20978;-57
2022/11/26 08:56:02;;;;;;;17.07;9.20;;;8.50;99.90;;;;;;5025745;28;20201;-57
2022/11/26 08:58:27;;;;;;;30.30;9.20;;;8.50;99.90;;;;;;5028312;28;20302;-57
2022/11/26 09:00:53;;;;;;;20.73;9.53;;;8.50;99.90;;;;;;5027209;28;20654;-57
2022/11/26 09:03:19;;;;;;;22.53;9.53;;;8.50;99.90;;;;;;5032564;28;20297;-56
2022/11/26 09:05:44;;;;;;;25.17;8.90;;;8.60;99.90;;;;;;5025585;28;20199;-55
2022/11/26 09:08:09;;;;;;;20.63;9.23;;;8.50;99.90;;;;;;5028856;28;20313;-56
2022/11/26 09:10:35;;;;;;;18.70;9.53;;;8.50;99.90;;;;;;5029006;28;20478;-56
2022/11/26 09:13:00;;;;;;;22.43;9.33;;;8.50;99.90;;;;;;5027179;28;20206;-56
2022/11/26 09:15:26;;;;;;;21.73;9.13;;;8.50;99.90;;;;;;5028260;28;20207;-56
2022/11/26 09:17:51;;;;;;;21.67;8.30;;;8.50;99.90;;;;;;5028274;28;20300;-56
2022/11/26 09:20:17;;;;;;;11.87;7.37;;;8.50;99.90;;;;;;5028300;28;20697;-56
2022/11/26 09:22:42;;;;;;;18.63;7.53;;;8.50;99.90;;;;;;5031936;28;20202;-56
2022/11/26 09:25:08;;;;;;;25.73;8.63;;;8.50;99.90;;;;;;5024401;28;20293;-56
2022/11/26 09:27:34;;;;;;;19.03;8.37;;;8.50;99.90;;;;;;5026450;28;20219;-56
2022/11/26 09:29:59;;;;;;;18.50;7.97;;;8.50;99.90;;;;;;5027930;28;20719;-56
2022/11/26 09:32:25;;;;;;;11.90;7.23;;;8.50;99.90;;;;;;5028719;28;21379;-56
2022/11/26 09:34:51;;;;;;;18.70;7.73;;;8.60;99.90;;;;;;5028275;28;20210;-56
2022/11/26 09:37:17;;;;;;;18.87;7.73;;;8.50;99.90;;;;;;5023561;28;20191;-55
2022/11/26 09:39:43;;;;;;;14.07;7.17;;;8.50;99.90;;;;;;5028690;28;20201;-57
2022/11/26 09:42:36;;;;;;;21.43;7.87;;;8.50;99.90;;;;;;5028577;28;20202;-58
2022/11/26 09:45:22;;;;;;;14.30;7.70;;;8.50;99.90;;;;;;5027853;28;20622;-56
2022/11/26 09:47:51;;;;;;;19.67;8.00;;;8.50;99.90;;;;;;5025876;28;20230;-56
2022/11/26 09:50:27;;;;;;;15.47;7.17;;;8.50;99.90;;;;;;5028223;28;20562;-56
2022/11/26 09:53:09;;;;;;;16.63;7.07;;;8.50;99.90;;;;;;5027621;28;20225;-56
2022/11/26 09:55:37;;;;;;;35.93;7.80;;;8.50;99.90;;;;;;5026339;28;20230;-56
2022/11/26 09:58:35;;;;;;;14.77;6.90;;;8.60;99.90;;;;;;5023496;28;20277;-56
2022/11/26 10:01:05;;;;;;;16.00;6.43;;;8.50;99.90;;;;;;5027518;28;20740;-57
2022/11/26 10:03:33;;;;;;;18.57;6.77;;;8.50;99.90;;;;;;5027436;28;20928;-56
2022/11/26 10:06:05;;;;;;;9.80;6.20;;;8.50;99.90;;;;;;5027435;28;20218;-56
2022/11/26 10:08:49;;;;;;;18.77;7.43;;;8.50;99.90;;;;;;5026896;28;20341;-57
2022/11/26 10:11:35;;;;;;;13.40;5.50;;;8.50;99.90;;;;;;5025581;28;20213;-58
2022/11/26 10:14:33;;;;;;;10.97;5.73;;;8.50;99.90;;;;;;5022621;28;20191;-59
2022/11/26 10:17:42;;;;;;;13.70;5.30;;;8.40;99.90;;;;;;5027609;28;20268;-57
2022/11/26 10:20:45;;;;;;;14.40;6.30;;;8.40;99.90;;;;;;5024384;28;20625;-56
2022/11/26 10:23:20;;;;;;;15.60;6.63;;;8.30;99.90;;;;;;5032212;28;20915;-56
2022/11/26 10:25:52;;;;;;;18.53;7.50;;;8.20;99.90;;;;;;5035141;28;20344;-56
2022/11/26 10:28:26;;;;;;;16.57;5.90;;;8.20;99.90;;;;;;5030033;28;20340;-55
2022/11/26 10:30:57;;;;;;;14.40;6.23;;;8.20;99.90;;;;;;5027899;28;20669;-57
2022/11/26 10:33:24;;;;;;;14.20;7.43;;;8.20;99.90;;;;;;5025654;28;20264;-57
2022/11/26 10:35:50;;;;;;;14.53;6.93;;;8.20;99.90;;;;;;5028065;28;20210;-55
2022/11/26 10:38:16;;;;;;;12.30;6.20;;;8.10;99.90;;;;;;5025183;28;20214;-58
2022/11/26 10:40:41;;;;;;;16.90;6.63;;;8.20;99.90;;;;;;5026858;28;20195;-54
2022/11/26 10:43:07;;;;;;;19.97;7.63;;;8.20;99.90;;;;;;5028675;28;20195;-57
2022/11/26 10:45:43;;;;;;;13.93;6.03;;;8.20;99.90;;;;;;5021260;28;20704;-57
2022/11/26 10:48:27;;;;;;;16.10;6.70;;;8.20;99.90;;;;;;5025685;28;20215;-58
2022/11/26 10:50:57;;;;;;;15.17;7.53;;;8.20;99.90;;;;;;5028591;28;20207;-59
2022/11/26 10:53:24;;;;;;;18.23;7.03;;;8.30;99.90;;;;;;5039012;28;20286;-58
2022/11/26 10:55:52;;;;;;;17.43;6.87;;;8.30;99.90;;;;;;5031943;28;20208;-59
2022/11/26 10:58:31;;;;;;;12.40;6.37;;;8.40;99.90;;;;;;5023017;28;20452;-57
2022/11/26 11:01:00;;;;;;;12.17;5.93;;;8.40;99.90;;;;;;5024168;28;20226;-58
2022/11/26 11:03:45;;;;;;;10.50;5.37;;;8.40;99.90;;;;;;5025550;28;20204;-61
2022/11/26 11:06:16;;;;;;;7.17;5.17;;;8.40;99.90;;;;;;5027414;28;20206;-59
2022/11/26 11:08:42;;;;;;;11.97;4.70;;;8.40;99.90;;;;;;5026282;28;20213;-59
2022/11/26 11:11:19;;;;;;;16.23;5.57;;;8.50;99.90;;;;;;5027126;28;20572;-59
2022/11/26 11:13:46;;;;;;;9.77;5.60;;;8.40;99.90;;;;;;5026150;28;20207;-58
2022/11/26 11:16:15;;;;;;;7.47;5.80;;;8.40;99.90;;;;;;5027857;28;20678;-58
2022/11/26 11:18:58;;;;;;;10.57;5.90;;;8.50;99.90;;;;;;5026905;28;20226;-60
2022/11/26 11:21:37;;;;;;;9.23;5.23;;;8.50;99.90;;;;;;5025874;28;20211;-60
2022/11/26 11:24:09;;;;;;;19.37;6.37;;;8.40;99.90;;;;;;5022869;28;20206;-59
2022/11/26 11:26:42;;;;;;;10.07;5.77;;;8.40;99.90;;;;;;5023722;28;20211;-61
2022/11/26 11:29:32;;;;;;;14.23;5.27;;;8.40;99.90;;;;;;5026266;28;20195;-61
2022/11/26 11:32:01;;;;;;;18.30;6.73;;;8.40;99.90;;;;;;5022902;28;20210;-57
2022/11/26 11:34:36;;;;;;;20.80;5.60;;;8.30;99.90;;;;;;5022591;28;20207;-57
2022/11/26 11:37:15;;;;;;;13.17;5.63;;;8.30;99.90;;;;;;5025161;28;20202;-58
2022/11/26 11:39:42;;;;;;;12.93;6.27;;;8.40;99.90;;;;;;5027920;28;20759;-57
2022/11/26 11:42:21;;;;;;;14.67;6.67;;;8.50;99.90;;;;;;5027826;28;20610;-58
2022/11/26 11:44:50;;;;;;;10.87;6.23;;;8.50;99.90;;;;;;5021809;28;20288;-58
2022/11/26 11:47:27;;;;;;;17.73;7.13;;;8.60;99.90;;;;;;5023917;28;20207;-57
2022/11/26 11:50:03;;;;;;;12.07;5.83;;;8.60;99.90;;;;;;5026430;28;20334;-57
2022/11/26 11:52:50;;;;;;;11.43;6.07;;;8.70;99.90;;;;;;5025140;28;20229;-56
2022/11/26 11:55:31;;;;;;;14.00;5.83;;;8.70;99.90;;;;;;5025335;28;20275;-56
2022/11/26 11:58:26;;;;;;;12.40;5.97;;;8.60;99.90;;;;;;5024015;28;20234;-56
2022/11/26 12:00:59;;;;;;;14.33;6.77;;;8.60;99.90;;;;;;5025412;28;20195;-57
2022/11/26 12:03:25;;;;;;;14.97;6.73;;;8.60;99.90;;;;;;5027172;28;20286;-58
2022/11/26 12:06:16;;;;;;;13.70;6.87;;;8.60;99.90;;;;;;5027365;28;20631;-56
2022/11/26 12:09:14;;;;;;;13.23;7.23;;;8.70;99.90;;;;;;5024733;28;20199;-56
2022/11/26 12:12:06;;;;;;;23.07;7.17;;;8.70;99.90;;;;;;5023080;28;20276;-56
2022/11/26 12:14:35;;;;;;;11.67;5.93;;;8.80;99.90;;;;;;5025499;28;20303;-56
2022/11/26 12:17:27;;;;;;;14.07;6.50;;;8.80;99.90;;;;;;5025585;28;20566;-63
2022/11/26 12:20:02;;;;;;;14.93;7.33;;;8.80;99.90;;;;;;5024084;28;20199;-57
2022/11/26 12:22:36;;;;;;;19.13;7.60;;;8.80;99.90;;;;;;5026788;28;20256;-57
2022/11/26 12:25:14;;;;;;;16.10;7.53;;;8.80;99.90;;;;;;5026242;28;20272;-56
2022/11/26 12:27:45;;;;;;;14.63;7.30;;;8.80;99.90;;;;;;5024746;28;21037;-56
2022/11/26 12:30:20;;;;;;;14.77;7.37;;;8.80;99.90;;;;;;5026411;28;20210;-57
2022/11/26 12:32:53;;;;;;;16.03;8.37;;;8.90;99.90;;;;;;5026133;28;20689;-57
2022/11/26 12:35:50;;;;;;;11.00;6.57;;;8.90;99.90;;;;;;5024613;28;20738;-58
2022/11/26 12:38:33;;;;;;;15.27;8.23;;;8.90;99.90;;;;;;5023204;28;20360;-58
2022/11/26 12:41:14;;;;;;;15.17;8.07;;;8.80;99.90;;;;;;5024181;28;20610;-58
2022/11/26 12:44:09;;;;;;;13.37;7.53;;;8.90;99.90;;;;;;5025569;28;20248;-58
2022/11/26 12:46:49;;;;;;;13.33;7.90;;;8.80;99.90;;;;;;5024393;28;20214;-59
2022/11/26 12:49:31;;;;;;;14.53;7.37;;;8.70;99.90;;;;;;5026105;28;20202;-58
2022/11/26 12:52:25;;;;;;;22.70;7.50;;;8.70;99.90;;;;;;5023173;28;20202;-58
2022/11/26 12:55:01;;;;;;;13.73;6.83;;;8.70;99.90;;;;;;5025093;28;20294;-58